This is the latest recevied weather packets stored in our database for station/object KB9MLJ. If no packets are shown the sender has not sent any weather packets the latest 10 day(s).
| Time | Temp. | Humidity | Pressure | Rain* | Wind** | Luminosity | Snow |
|---|---|---|---|---|---|---|---|
| 1777691718 | 2.78° C | 83% | 1019.2 hPa | 0 mm | - | 0 W/m² | - |
| 1777691415 | 3.33° C | 83% | 1019.2 hPa | 0 mm | - | 0 W/m² | - |
| 1777691114 | 3.33° C | 82% | 1019.2 hPa | 0 mm | - | 0 W/m² | - |
| 1777690812 | 3.33° C | 82% | 1019.2 hPa | 0 mm | - | 0 W/m² | - |
| 1777690509 | 3.33° C | 83% | 1019.2 hPa | 0 mm | - | 0 W/m² | - |
| 1777690207 | 3.33° C | 83% | 1019.2 hPa | 0 mm | - | 0 W/m² | - |
| 1777689904 | 3.89° C | 83% | 1018.9 hPa | 0 mm | - | 0 W/m² | - |
| 1777689602 | 3.89° C | 83% | 1018.9 hPa | 0 mm | - | 0 W/m² | - |
| 1777689299 | 3.89° C | 83% | 1018.9 hPa | 0 mm | - | 0 W/m² | - |
| 1777688996 | 3.89° C | 82% | 1018.9 hPa | 0 mm | - | 0 W/m² | - |
| 1777688693 | 3.89° C | 82% | 1018.9 hPa | 0 mm | - | 0 W/m² | - |
| 1777674149 | 9.44° C | 68% | 1017.2 hPa | 0 mm | - | 106 W/m² | - |
| 1777673845 | 9.44° C | 68% | 1017.2 hPa | 0 mm | - | 134 W/m² | - |
| 1777673543 | 9.44° C | 69% | 1016.8 hPa | 0 mm | - | 136 W/m² | - |
| 1777673240 | 9.44° C | 69% | 1017.2 hPa | 0 mm | - | 115 W/m² | - |
| 1777672329 | 9.44° C | 68% | 1017.2 hPa | 0 mm | - | 115 W/m² | - |
| 1777671721 | 9.44° C | 67% | 1017.2 hPa | 0 mm | - | 111 W/m² | - |
| 1777671417 | 10° C | 68% | 1017.2 hPa | 0 mm | - | 81 W/m² | - |
| 1777670810 | 10° C | 67% | 1017.2 hPa | 0 mm | - | 87 W/m² | - |
| 1777670507 | 10° C | 64% | 1016.8 hPa | 0 mm | - | 104 W/m² | - |
| 1777670203 | 10° C | 65% | 1016.8 hPa | 0 mm | - | 124 W/m² | - |
| 1777669901 | 10° C | 66% | 1016.8 hPa | 0 mm | - | 147 W/m² | - |
| 1777669597 | 10° C | 66% | 1017.2 hPa | 0 mm | - | 157 W/m² | - |
| 1777669294 | 10° C | 67% | 1017.2 hPa | 0 mm | - | 163 W/m² | - |
| 1777668985 | 9.44° C | 67% | 1017.2 hPa | 0 mm | - | 125 W/m² | - |
* Rain latest hour (hover to see other rain measurements)
** Current wind speed in m/s (hover to see current wind gust speed)